createdAt,value
2023-05-07T00:00:16.895Z,4.00
2023-05-07T00:02:43.951Z,3.58
2023-05-07T00:05:10.727Z,3.80
2023-05-07T00:07:37.610Z,4.13
2023-05-07T00:10:04.794Z,3.70
2023-05-07T00:12:34.606Z,3.70
2023-05-07T00:15:02.887Z,3.33
2023-05-07T00:17:29.336Z,3.28
2023-05-07T00:19:55.974Z,3.15
2023-05-07T00:22:22.505Z,3.00
2023-05-07T00:24:49.063Z,3.40
2023-05-07T00:27:15.566Z,3.38
2023-05-07T00:29:42.188Z,3.17
2023-05-07T00:32:09.180Z,3.38
2023-05-07T00:34:35.640Z,2.78
2023-05-07T00:37:03.037Z,3.25
2023-05-07T00:39:31.010Z,3.25
2023-05-07T00:41:57.977Z,3.38
2023-05-07T00:44:24.520Z,3.28
2023-05-07T00:46:51.140Z,3.97
2023-05-07T00:49:17.747Z,2.80
2023-05-07T00:51:44.672Z,2.90
2023-05-07T00:54:12.013Z,2.33
2023-05-07T00:56:40.104Z,3.03
2023-05-07T00:59:06.819Z,3.20
2023-05-07T01:01:33.475Z,3.20
2023-05-07T01:04:00.551Z,2.95
2023-05-07T01:06:28.849Z,3.17
2023-05-07T01:08:57.814Z,3.25
2023-05-07T01:11:24.493Z,3.30
2023-05-07T01:13:51.512Z,3.45
2023-05-07T01:16:18.106Z,3.33
2023-05-07T01:18:45.123Z,2.97
2023-05-07T01:21:12.058Z,2.83
2023-05-07T01:23:39.411Z,3.28
2023-05-07T01:26:05.963Z,3.08
2023-05-07T01:28:32.430Z,3.20
2023-05-07T01:31:03.281Z,2.97
2023-05-07T01:33:32.899Z,2.88
2023-05-07T01:36:01.308Z,3.35
2023-05-07T01:38:28.207Z,3.67
2023-05-07T01:40:54.807Z,3.10
2023-05-07T01:43:21.303Z,3.55
2023-05-07T01:45:50.064Z,3.20
2023-05-07T01:48:17.155Z,2.97
2023-05-07T01:50:44.219Z,3.60
2023-05-07T01:53:12.056Z,3.35
2023-05-07T01:55:38.548Z,3.50
2023-05-07T01:58:05.358Z,3.40
2023-05-07T02:00:32.067Z,3.25
2023-05-07T02:02:58.882Z,3.30
2023-05-07T02:05:25.528Z,3.92
2023-05-07T02:07:52.043Z,3.20
2023-05-07T02:10:18.503Z,3.13
2023-05-07T02:12:45.641Z,3.40
2023-05-07T02:15:12.287Z,3.58
2023-05-07T02:18:00.225Z,2.97
2023-05-07T02:20:26.828Z,3.53
2023-05-07T02:22:53.438Z,3.45
2023-05-07T02:25:19.912Z,2.88
2023-05-07T02:27:46.375Z,2.60
2023-05-07T02:30:13.072Z,2.67
2023-05-07T02:32:39.582Z,2.63
2023-05-07T02:35:06.290Z,2.55
2023-05-07T02:37:32.766Z,2.90
2023-05-07T02:39:59.304Z,3.05
2023-05-07T02:42:25.759Z,2.88
2023-05-07T02:44:52.471Z,3.47
2023-05-07T02:47:19.285Z,2.95
2023-05-07T02:49:45.768Z,2.90
2023-05-07T02:52:12.197Z,2.90
2023-05-07T02:54:38.726Z,3.53
2023-05-07T02:57:05.231Z,4.18
2023-05-07T02:59:31.716Z,4.32
2023-05-07T03:01:58.372Z,4.15
2023-05-07T03:04:24.924Z,4.05
2023-05-07T03:06:51.460Z,4.45
2023-05-07T03:09:18.098Z,3.03
2023-05-07T03:11:44.604Z,3.17
2023-05-07T03:14:11.361Z,3.70
2023-05-07T03:16:37.898Z,3.50
2023-05-07T03:19:04.417Z,3.38
2023-05-07T03:21:31.703Z,3.30
2023-05-07T03:23:58.202Z,3.42
2023-05-07T03:26:24.728Z,3.83
2023-05-07T03:28:51.227Z,4.10
2023-05-07T03:31:17.932Z,3.70
2023-05-07T03:33:54.654Z,3.55
2023-05-07T03:36:21.574Z,3.83
2023-05-07T03:38:49.039Z,3.97
2023-05-07T03:41:15.515Z,3.78
2023-05-07T03:43:42.022Z,3.22
2023-05-07T03:46:08.578Z,3.85
2023-05-07T03:48:35.058Z,3.53
2023-05-07T03:51:01.550Z,3.30
2023-05-07T03:53:28.071Z,3.80
2023-05-07T03:55:54.473Z,3.05
2023-05-07T03:58:21.038Z,3.17
2023-05-07T04:00:47.555Z,3.17
2023-05-07T04:03:14.084Z,3.15
2023-05-07T04:05:40.584Z,3.25
2023-05-07T04:08:07.119Z,3.50
2023-05-07T04:10:33.568Z,3.42
2023-05-07T04:13:00.055Z,3.85
2023-05-07T04:15:26.536Z,3.03
2023-05-07T04:17:53.021Z,3.53
2023-05-07T04:20:19.683Z,3.45
2023-05-07T04:22:46.124Z,3.95
2023-05-07T04:25:12.614Z,3.50
2023-05-07T04:27:39.070Z,3.17
2023-05-07T04:30:05.936Z,3.78
2023-05-07T04:32:32.862Z,3.10
2023-05-07T04:34:59.331Z,3.25
2023-05-07T04:37:26.885Z,3.20
2023-05-07T04:39:53.368Z,3.35
2023-05-07T04:42:19.845Z,3.33
2023-05-07T04:44:46.480Z,3.38
2023-05-07T04:47:13.438Z,3.40
2023-05-07T04:49:40.031Z,3.22
2023-05-07T04:52:06.509Z,2.97
2023-05-07T04:54:33.016Z,3.42
2023-05-07T04:56:59.477Z,3.33
2023-05-07T04:59:25.953Z,3.72
2023-05-07T05:01:52.489Z,4.40
2023-05-07T05:04:19.152Z,4.00
2023-05-07T05:06:45.814Z,4.30
2023-05-07T05:09:12.407Z,4.38
2023-05-07T05:11:40.498Z,4.03
2023-05-07T05:14:06.930Z,4.10
2023-05-07T05:16:33.967Z,4.55
2023-05-07T05:19:02.818Z,3.58
2023-05-07T05:21:29.286Z,3.78
2023-05-07T05:23:55.754Z,4.22
2023-05-07T05:26:22.319Z,4.50
2023-05-07T05:28:48.789Z,4.53
2023-05-07T05:31:17.486Z,4.93
2023-05-07T05:33:43.994Z,5.05
2023-05-07T05:36:11.208Z,5.45
2023-05-07T05:38:37.714Z,6.18
2023-05-07T05:41:04.276Z,6.35
2023-05-07T05:43:31.019Z,5.85
2023-05-07T05:45:57.940Z,6.30
2023-05-07T05:48:24.514Z,6.25
2023-05-07T05:50:51.021Z,8.02
2023-05-07T05:53:17.677Z,8.25
2023-05-07T05:55:44.768Z,8.43
2023-05-07T05:58:11.375Z,7.55
2023-05-07T06:00:37.869Z,8.20
2023-05-07T06:03:04.499Z,8.02
2023-05-07T06:05:31.081Z,9.10
2023-05-07T06:07:57.586Z,8.23
2023-05-07T06:10:25.101Z,6.07
2023-05-07T06:12:51.683Z,5.72
2023-05-07T06:15:18.248Z,5.85
2023-05-07T06:17:45.020Z,5.30
2023-05-07T06:20:11.929Z,5.75
2023-05-07T06:22:39.299Z,5.47
2023-05-07T06:25:06.051Z,4.78
2023-05-07T06:27:32.576Z,4.65
2023-05-07T06:29:59.112Z,5.20
2023-05-07T06:32:25.728Z,4.75
2023-05-07T06:34:52.355Z,4.13
2023-05-07T06:37:18.898Z,5.00
2023-05-07T06:39:45.597Z,4.57
2023-05-07T06:42:12.250Z,4.10
2023-05-07T06:44:38.735Z,5.00
2023-05-07T06:47:06.546Z,5.20
2023-05-07T06:49:33.590Z,4.78
2023-05-07T06:52:00.058Z,4.20
2023-05-07T06:54:26.672Z,4.43
2023-05-07T06:56:53.336Z,5.15
2023-05-07T06:59:20.482Z,4.57
2023-05-07T07:01:47.089Z,5.05
2023-05-07T07:04:14.366Z,5.45
2023-05-07T07:06:41.137Z,5.38
2023-05-07T07:09:07.706Z,5.35
2023-05-07T07:11:34.279Z,5.90
2023-05-07T07:14:02.296Z,5.80
2023-05-07T07:16:28.840Z,4.82
2023-05-07T07:18:55.464Z,6.03
2023-05-07T07:21:22.301Z,5.90
2023-05-07T07:23:48.977Z,6.18
2023-05-07T07:26:15.619Z,7.13
2023-05-07T07:28:45.869Z,7.32
2023-05-07T07:31:13.201Z,7.15
2023-05-07T07:33:39.873Z,7.55
2023-05-07T07:36:07.527Z,6.68
2023-05-07T07:38:34.360Z,6.53
2023-05-07T07:41:01.224Z,6.20
2023-05-07T07:43:27.724Z,5.38
2023-05-07T07:45:54.366Z,5.18
2023-05-07T07:48:20.913Z,7.20
2023-05-07T07:50:49.702Z,6.13
2023-05-07T07:53:16.141Z,6.97
2023-05-07T07:55:42.777Z,7.22
2023-05-07T07:58:09.246Z,7.60
2023-05-07T08:00:35.765Z,7.00
2023-05-07T08:03:04.229Z,7.75
2023-05-07T08:05:31.006Z,6.97
2023-05-07T08:07:59.545Z,6.28
2023-05-07T08:10:27.333Z,7.53
2023-05-07T08:12:54.024Z,7.93
2023-05-07T08:15:21.027Z,7.38
2023-05-07T08:17:47.710Z,8.70
2023-05-07T08:20:14.656Z,7.60
2023-05-07T08:22:43.697Z,6.40
2023-05-07T08:25:10.509Z,6.18
2023-05-07T08:27:38.335Z,5.80
2023-05-07T08:30:05.508Z,6.85
2023-05-07T08:32:32.026Z,6.30
2023-05-07T08:34:58.500Z,7.05
2023-05-07T08:37:26.765Z,6.60
2023-05-07T08:39:53.247Z,5.65
2023-05-07T08:42:20.707Z,6.13
2023-05-07T08:44:50.139Z,6.07
2023-05-07T08:47:17.427Z,5.22
2023-05-07T08:49:44.983Z,5.35
2023-05-07T08:52:12.951Z,5.50
2023-05-07T08:54:39.925Z,5.80
2023-05-07T08:57:06.388Z,6.03
2023-05-07T08:59:32.931Z,5.35
2023-05-07T09:01:59.557Z,6.15
2023-05-07T09:04:26.810Z,5.90
2023-05-07T09:06:53.194Z,6.45
2023-05-07T09:09:22.731Z,5.90
2023-05-07T09:11:57.964Z,5.60
2023-05-07T09:14:25.375Z,6.95
2023-05-07T09:16:55.977Z,5.28
2023-05-07T09:19:26.169Z,6.07
2023-05-07T09:22:04.888Z,5.72
2023-05-07T09:24:35.845Z,5.38
2023-05-07T09:27:03.732Z,5.88
2023-05-07T09:29:31.246Z,5.80
2023-05-07T09:31:59.967Z,5.25
2023-05-07T09:34:26.433Z,5.15
2023-05-07T09:36:54.579Z,5.88
2023-05-07T09:39:21.161Z,5.47
2023-05-07T09:41:50.426Z,6.57
2023-05-07T09:44:18.577Z,6.47
2023-05-07T09:46:45.535Z,6.28
2023-05-07T09:49:22.170Z,6.25
2023-05-07T09:51:50.548Z,5.63
2023-05-07T09:54:17.684Z,8.10
2023-05-07T09:56:45.041Z,7.00
2023-05-07T09:59:13.666Z,7.25
2023-05-07T10:01:44.613Z,6.50
2023-05-07T10:04:12.260Z,8.43
2023-05-07T10:06:39.077Z,7.13
2023-05-07T10:09:08.983Z,6.50
2023-05-07T10:11:37.508Z,7.63
2023-05-07T10:14:05.057Z,6.22
2023-05-07T10:16:37.366Z,5.93
2023-05-07T10:19:08.043Z,8.68
2023-05-07T10:21:36.766Z,7.18
2023-05-07T10:24:15.124Z,6.45
2023-05-07T10:26:43.963Z,6.82
2023-05-07T10:29:16.165Z,6.22
2023-05-07T10:31:49.900Z,7.40
2023-05-07T10:34:19.113Z,7.00
2023-05-07T10:36:45.963Z,6.75
2023-05-07T10:39:12.459Z,6.13
2023-05-07T10:41:39.044Z,6.03
2023-05-07T10:44:06.855Z,6.30
2023-05-07T10:46:36.636Z,7.40
2023-05-07T10:49:07.904Z,8.68
2023-05-07T10:51:36.414Z,6.30
2023-05-07T10:54:12.752Z,7.07
2023-05-07T10:56:44.209Z,6.53
2023-05-07T10:59:28.299Z,7.60
2023-05-07T11:02:07.683Z,7.07
2023-05-07T11:04:36.194Z,6.93
2023-05-07T11:07:13.870Z,6.75
2023-05-07T11:09:52.683Z,5.53
2023-05-07T11:12:37.556Z,5.90
2023-05-07T11:15:05.429Z,6.72
2023-05-07T11:17:35.730Z,5.30
2023-05-07T11:20:05.608Z,5.63
2023-05-07T11:22:38.061Z,5.63
2023-05-07T11:25:04.874Z,5.32
2023-05-07T11:27:31.340Z,5.93
2023-05-07T11:29:57.875Z,5.72
2023-05-07T11:32:24.938Z,5.38
2023-05-07T11:34:55.098Z,5.45
2023-05-07T11:37:22.496Z,6.00
2023-05-07T11:39:55.457Z,4.60
2023-05-07T11:42:27.990Z,5.90
2023-05-07T11:44:54.552Z,5.82
2023-05-07T11:47:22.518Z,5.00
2023-05-07T11:49:49.851Z,4.85
2023-05-07T11:52:17.187Z,5.22
2023-05-07T11:54:50.145Z,5.10
2023-05-07T11:57:16.663Z,5.97
2023-05-07T11:59:45.260Z,5.35
2023-05-07T12:02:14.425Z,5.20
2023-05-07T12:04:42.976Z,7.45
2023-05-07T12:07:16.108Z,6.40
2023-05-07T12:09:43.409Z,5.22
2023-05-07T12:12:11.290Z,5.53
2023-05-07T12:14:43.321Z,6.05
2023-05-07T12:17:10.672Z,5.97
2023-05-07T12:19:37.891Z,5.60
2023-05-07T12:22:04.986Z,7.32
2023-05-07T12:24:44.987Z,5.55
2023-05-07T12:27:11.546Z,5.53
2023-05-07T12:29:40.974Z,5.35
2023-05-07T12:32:08.085Z,5.28
2023-05-07T12:34:34.624Z,5.05
2023-05-07T12:37:03.061Z,4.97
2023-05-07T12:39:29.597Z,5.55
2023-05-07T12:41:56.803Z,5.38
2023-05-07T12:44:29.773Z,5.50
2023-05-07T12:46:56.454Z,5.57
2023-05-07T12:49:25.312Z,5.15
2023-05-07T12:51:51.995Z,5.55
2023-05-07T12:54:38.869Z,5.50
2023-05-07T12:57:10.077Z,5.68
2023-05-07T12:59:40.932Z,5.07
2023-05-07T13:02:08.985Z,5.30
2023-05-07T13:04:36.031Z,5.95
2023-05-07T13:07:02.739Z,5.22
2023-05-07T13:09:32.400Z,5.57
2023-05-07T13:12:02.291Z,5.40
2023-05-07T13:14:29.137Z,4.95
2023-05-07T13:16:59.148Z,5.07
2023-05-07T13:19:29.021Z,5.60
2023-05-07T13:21:56.679Z,5.20
2023-05-07T13:24:25.730Z,6.32
2023-05-07T13:26:52.348Z,5.00
2023-05-07T13:29:19.356Z,5.25
2023-05-07T13:31:46.770Z,4.45
2023-05-07T13:34:14.949Z,4.40
2023-05-07T13:36:43.006Z,4.70
2023-05-07T13:39:10.127Z,4.68
2023-05-07T13:41:36.635Z,4.05
2023-05-07T13:44:03.240Z,4.72
2023-05-07T13:46:32.887Z,4.22
2023-05-07T13:48:59.526Z,4.57
2023-05-07T13:51:27.844Z,4.03
2023-05-07T13:53:55.303Z,3.95
2023-05-07T13:56:22.246Z,4.32
2023-05-07T13:58:59.459Z,4.70
2023-05-07T14:01:28.453Z,4.10
2023-05-07T14:03:55.202Z,4.68
2023-05-07T14:06:21.805Z,4.32
2023-05-07T14:08:48.258Z,4.20
2023-05-07T14:11:14.797Z,4.60
2023-05-07T14:13:41.424Z,5.53
2023-05-07T14:16:09.019Z,4.68
2023-05-07T14:18:37.955Z,4.53
2023-05-07T14:21:07.099Z,5.05
2023-05-07T14:23:33.791Z,4.38
2023-05-07T14:26:00.555Z,5.10
2023-05-07T14:28:27.101Z,4.47
2023-05-07T14:30:53.712Z,4.90
2023-05-07T14:33:20.317Z,4.82
2023-05-07T14:35:49.812Z,5.20
2023-05-07T14:38:16.697Z,5.38
2023-05-07T14:40:43.355Z,5.43
2023-05-07T14:43:10.065Z,5.70
2023-05-07T14:45:40.463Z,5.50
2023-05-07T14:48:07.101Z,5.22
2023-05-07T14:50:34.712Z,5.60
2023-05-07T14:53:01.394Z,5.53
2023-05-07T14:55:29.089Z,5.90
2023-05-07T14:57:56.669Z,5.93
2023-05-07T15:00:23.272Z,5.75
2023-05-07T15:02:49.912Z,5.93
2023-05-07T15:05:20.322Z,5.32
2023-05-07T15:07:47.376Z,5.10
2023-05-07T15:10:15.083Z,5.75
2023-05-07T15:12:41.906Z,5.45
2023-05-07T15:15:08.790Z,5.65
2023-05-07T15:17:35.424Z,5.72
2023-05-07T15:20:01.902Z,6.60
2023-05-07T15:22:28.489Z,7.20
2023-05-07T15:24:56.147Z,6.65
2023-05-07T15:27:23.661Z,7.57
2023-05-07T15:29:50.687Z,7.05
2023-05-07T15:32:17.319Z,7.90
2023-05-07T15:34:43.946Z,8.32
2023-05-07T15:37:10.860Z,7.88
2023-05-07T15:39:37.377Z,8.48
2023-05-07T15:42:04.061Z,8.35
2023-05-07T15:44:34.852Z,7.22
2023-05-07T15:47:02.212Z,8.57
2023-05-07T15:49:28.836Z,8.90
2023-05-07T15:51:55.698Z,8.50
2023-05-07T15:54:22.266Z,7.93
2023-05-07T15:56:48.869Z,9.00
2023-05-07T15:59:17.052Z,9.52
2023-05-07T16:01:45.216Z,9.50
2023-05-07T16:04:11.894Z,9.07
2023-05-07T16:06:38.506Z,10.02
2023-05-07T16:09:04.980Z,8.73
2023-05-07T16:11:32.181Z,8.75
2023-05-07T16:14:00.796Z,9.00
2023-05-07T16:16:30.104Z,8.00
2023-05-07T16:18:57.244Z,8.45
2023-05-07T16:21:23.796Z,9.20
2023-05-07T16:23:50.877Z,8.23
2023-05-07T16:26:17.950Z,8.00
2023-05-07T16:28:44.757Z,8.80
2023-05-07T16:31:11.235Z,8.65
2023-05-07T16:33:37.775Z,8.45
2023-05-07T16:36:04.631Z,8.25
2023-05-07T16:38:33.205Z,8.18
2023-05-07T16:40:59.907Z,8.18
2023-05-07T16:43:26.727Z,8.23
2023-05-07T16:45:53.556Z,8.57
2023-05-07T16:48:21.956Z,7.72
2023-05-07T16:50:48.495Z,7.93
2023-05-07T16:53:15.074Z,8.13
2023-05-07T16:55:41.715Z,8.45
2023-05-07T16:58:09.248Z,8.15
2023-05-07T17:00:49.243Z,9.07
2023-05-07T17:03:17.722Z,8.50
2023-05-07T17:05:44.851Z,8.32
2023-05-07T17:08:11.441Z,8.82
2023-05-07T17:10:39.219Z,8.48
2023-05-07T17:13:06.612Z,9.13
2023-05-07T17:15:33.439Z,8.35
2023-05-07T17:18:02.780Z,8.30
2023-05-07T17:20:29.452Z,8.95
2023-05-07T17:22:56.731Z,9.75
2023-05-07T17:25:23.511Z,9.45
2023-05-07T17:27:51.715Z,9.88
2023-05-07T17:30:18.718Z,8.18
2023-05-07T17:32:46.197Z,9.38
2023-05-07T17:35:12.768Z,9.20
2023-05-07T17:37:39.415Z,9.52
2023-05-07T17:40:07.477Z,8.70
2023-05-07T17:42:34.065Z,9.75
2023-05-07T17:45:00.636Z,9.18
2023-05-07T17:47:27.141Z,9.10
2023-05-07T17:49:53.704Z,9.52
2023-05-07T17:52:20.316Z,9.23
2023-05-07T17:54:46.881Z,9.20
2023-05-07T17:57:13.377Z,9.80
2023-05-07T17:59:40.237Z,8.43
2023-05-07T18:02:06.788Z,9.20
2023-05-07T18:04:33.805Z,8.90
2023-05-07T18:07:01.913Z,9.20
2023-05-07T18:09:28.373Z,9.15
2023-05-07T18:11:56.132Z,8.63
2023-05-07T18:14:26.022Z,9.35
2023-05-07T18:16:54.415Z,8.52
2023-05-07T18:19:21.487Z,9.13
2023-05-07T18:21:48.382Z,9.02
2023-05-07T18:24:14.892Z,8.52
2023-05-07T18:26:41.330Z,8.50
2023-05-07T18:29:07.926Z,9.10
2023-05-07T18:31:36.768Z,8.57
2023-05-07T18:34:04.351Z,9.30
2023-05-07T18:36:30.830Z,9.50
2023-05-07T18:38:57.378Z,9.43
2023-05-07T18:41:23.860Z,8.73
2023-05-07T18:43:53.036Z,9.13
2023-05-07T18:46:19.678Z,8.68
2023-05-07T18:48:46.252Z,9.13
2023-05-07T18:51:12.819Z,9.00
2023-05-07T18:53:42.416Z,9.30
2023-05-07T18:56:09.412Z,8.23
2023-05-07T18:58:36.030Z,9.35
2023-05-07T19:01:02.663Z,9.52
2023-05-07T19:03:29.414Z,9.77
2023-05-07T19:05:56.500Z,9.40
2023-05-07T19:08:23.159Z,9.93
2023-05-07T19:10:49.909Z,9.35
2023-05-07T19:13:16.693Z,8.73
2023-05-07T19:15:46.121Z,9.20
2023-05-07T19:18:12.684Z,9.68
2023-05-07T19:20:39.235Z,8.50
2023-05-07T19:23:07.795Z,9.10
2023-05-07T19:25:34.283Z,9.25
2023-05-07T19:28:04.059Z,8.65
2023-05-07T19:30:32.836Z,8.15
2023-05-07T19:33:01.264Z,7.53
2023-05-07T19:35:27.913Z,7.50
2023-05-07T19:37:54.417Z,7.18
2023-05-07T19:40:20.952Z,6.65
2023-05-07T19:42:47.556Z,7.22
2023-05-07T19:45:17.265Z,6.55
2023-05-07T19:47:43.868Z,6.00
2023-05-07T19:50:10.682Z,6.18
2023-05-07T19:52:37.357Z,5.43
2023-05-07T19:55:04.108Z,5.20
2023-05-07T19:57:30.657Z,5.22
2023-05-07T19:59:57.514Z,5.50
2023-05-07T20:02:26.102Z,5.38
2023-05-07T20:04:52.861Z,5.65
2023-05-07T20:07:20.911Z,5.72
2023-05-07T20:09:47.532Z,5.22
2023-05-07T20:12:14.266Z,5.60
2023-05-07T20:14:41.176Z,5.10
2023-05-07T20:17:07.791Z,5.57
2023-05-07T20:19:34.440Z,5.55
2023-05-07T20:22:01.013Z,5.85
2023-05-07T20:24:30.337Z,6.22
2023-05-07T20:26:57.020Z,5.32
2023-05-07T20:29:23.548Z,5.85
2023-05-07T20:31:50.169Z,6.38
2023-05-07T20:34:16.804Z,6.38
2023-05-07T20:36:43.438Z,6.60
2023-05-07T20:39:13.164Z,6.68
2023-05-07T20:41:39.679Z,7.32
2023-05-07T20:44:08.686Z,7.35
2023-05-07T20:46:36.647Z,7.10
2023-05-07T20:49:03.757Z,6.60
2023-05-07T20:51:31.084Z,7.15
2023-05-07T20:53:57.666Z,7.15
2023-05-07T20:56:26.594Z,6.68
2023-05-07T20:58:53.201Z,7.30
2023-05-07T21:01:22.748Z,7.20
2023-05-07T21:03:50.242Z,7.75
2023-05-07T21:06:17.478Z,7.60
2023-05-07T21:08:44.066Z,6.95
2023-05-07T21:11:12.948Z,7.10
2023-05-07T21:13:39.427Z,7.57
2023-05-07T21:16:06.263Z,6.32
2023-05-07T21:18:32.910Z,7.47
2023-05-07T21:21:07.405Z,7.43
2023-05-07T21:23:33.863Z,7.15
2023-05-07T21:26:00.441Z,7.07
2023-05-07T21:28:29.796Z,6.90
2023-05-07T21:30:56.340Z,6.38
2023-05-07T21:33:22.876Z,7.13
2023-05-07T21:35:49.398Z,6.07
2023-05-07T21:38:15.992Z,6.35
2023-05-07T21:40:42.477Z,6.32
2023-05-07T21:43:08.895Z,6.85
2023-05-07T21:45:35.553Z,6.72
2023-05-07T21:48:02.282Z,7.13
2023-05-07T21:50:28.898Z,6.53
2023-05-07T21:52:55.542Z,7.22
2023-05-07T21:55:22.069Z,7.18
2023-05-07T21:58:01.100Z,6.20
2023-05-07T22:00:31.359Z,6.10
2023-05-07T22:02:58.014Z,6.55
2023-05-07T22:05:24.555Z,6.57
2023-05-07T22:07:51.024Z,6.10
2023-05-07T22:10:21.840Z,6.35
2023-05-07T22:12:48.381Z,5.90
2023-05-07T22:15:14.825Z,6.03
2023-05-07T22:17:41.339Z,6.20
2023-05-07T22:20:08.221Z,5.35
2023-05-07T22:22:45.250Z,5.88
2023-05-07T22:25:11.870Z,5.47
2023-05-07T22:27:38.440Z,6.03
2023-05-07T22:30:05.111Z,5.28
2023-05-07T22:32:31.567Z,5.28
2023-05-07T22:34:58.052Z,5.80
2023-05-07T22:37:26.717Z,5.45
2023-05-07T22:39:53.384Z,5.80
2023-05-07T22:42:19.902Z,5.72
2023-05-07T22:44:46.348Z,5.70
2023-05-07T22:47:12.899Z,5.40
2023-05-07T22:49:39.602Z,6.00
2023-05-07T22:52:06.020Z,5.30
2023-05-07T22:54:32.492Z,5.15
2023-05-07T22:56:59.934Z,4.90
2023-05-07T22:59:26.447Z,5.70
2023-05-07T23:01:52.962Z,5.05
2023-05-07T23:04:19.406Z,5.55
2023-05-07T23:06:46.283Z,5.75
2023-05-07T23:09:12.909Z,5.95
2023-05-07T23:11:39.455Z,6.63
2023-05-07T23:14:06.145Z,6.40
2023-05-07T23:16:32.756Z,6.20
2023-05-07T23:18:59.245Z,6.35
2023-05-07T23:21:25.669Z,6.38
2023-05-07T23:23:52.171Z,6.50
2023-05-07T23:26:18.631Z,6.82
2023-05-07T23:28:45.125Z,6.97
2023-05-07T23:31:12.819Z,6.45
2023-05-07T23:33:39.366Z,6.82
2023-05-07T23:36:06.596Z,7.20
2023-05-07T23:38:33.211Z,7.47
2023-05-07T23:40:59.807Z,6.95
2023-05-07T23:43:26.668Z,7.25
2023-05-07T23:45:53.173Z,7.40
2023-05-07T23:48:19.666Z,7.55
2023-05-07T23:50:46.190Z,7.88
2023-05-07T23:53:12.672Z,7.47
2023-05-07T23:55:39.134Z,8.38
2023-05-07T23:58:05.832Z,7.70
